Time;durP1;ratioP1;P1;durP2;ratioP2;P2;SDS_P1;SDS_P2;PMS_P1;PMS_P2;Temp;Humidity;BMP_temperature;BMP_pressure;BME280_temperature;BME280_humidity;BME280_pressure;Samples;Min_cycle;Max_cycle;Signal;HPM_P1;HPM_P2
2021/09/03 00:02:04;;;;;;;63.00;28.15;;;;;;;;;;5092046;28;20052;-62
2021/09/03 00:04:49;;;;;;;63.42;26.92;;;;;;;;;;5091539;28;20529;-61
2021/09/03 00:07:35;;;;;;;64.15;28.33;;;;;;;;;;5092035;28;20044;-61
2021/09/03 00:10:21;;;;;;;60.85;29.40;;;;;;;;;;5091971;28;20079;-61
2021/09/03 00:13:06;;;;;;;68.38;31.45;;;;;;;;;;5092037;28;20056;-61
2021/09/03 00:15:52;;;;;;;62.08;28.38;;;;;;;;;;5091895;28;20056;-61
2021/09/03 00:18:37;;;;;;;65.60;29.45;;;;;;;;;;5091823;28;20056;-61
2021/09/03 00:21:22;;;;;;;63.95;28.70;;;;;;;;;;5091678;28;20130;-61
2021/09/03 00:24:08;;;;;;;61.63;29.23;;;;;;;;;;5091719;28;20044;-61
2021/09/03 00:26:53;;;;;;;56.88;27.05;;;;;;;;;;5091788;28;20052;-61
2021/09/03 00:29:38;;;;;;;60.60;27.42;;;;;;;;;;5091625;28;20406;-61
2021/09/03 00:32:23;;;;;;;64.40;28.10;;;;;;;;;;5091888;28;20044;-62
2021/09/03 00:35:09;;;;;;;68.70;29.05;;;;;;;;;;5091448;28;20048;-62
2021/09/03 00:37:54;;;;;;;62.97;28.92;;;;;;;;;;5091604;28;20056;-62
2021/09/03 00:40:39;;;;;;;67.65;31.48;;;;;;;;;;5091790;28;20052;-61
2021/09/03 00:43:27;;;;;;;73.72;30.75;;;;;;;;;;5091423;28;20052;-61
2021/09/03 00:46:13;;;;;;;76.47;32.33;;;;;;;;;;5091510;28;20115;-61
2021/09/03 00:48:58;;;;;;;68.03;31.48;;;;;;;;;;5091489;28;20561;-61
2021/09/03 00:51:44;;;;;;;68.75;30.63;;;;;;;;;;5091619;28;20452;-61
2021/09/03 00:54:29;;;;;;;86.85;34.75;;;;;;;;;;5090053;28;20452;-62
2021/09/03 00:57:14;;;;;;;78.22;31.45;;;;;;;;;;5091649;28;20051;-62
2021/09/03 00:59:59;;;;;;;68.55;27.33;;;;;;;;;;5095078;28;20052;-61
2021/09/03 01:02:44;;;;;;;70.68;28.65;;;;;;;;;;5094990;28;20517;-62
2021/09/03 01:05:29;;;;;;;51.45;22.88;;;;;;;;;;5094917;28;20052;-62
2021/09/03 01:08:16;;;;;;;63.85;25.33;;;;;;;;;;5095100;28;20127;-61
2021/09/03 01:11:02;;;;;;;69.35;29.70;;;;;;;;;;5094970;28;20079;-61
2021/09/03 01:13:47;;;;;;;57.78;25.50;;;;;;;;;;5094696;28;20044;-61
2021/09/03 01:16:32;;;;;;;71.00;28.98;;;;;;;;;;5094683;28;20561;-61
2021/09/03 01:19:18;;;;;;;67.50;27.75;;;;;;;;;;5094677;28;20083;-62
2021/09/03 01:22:03;;;;;;;79.53;30.92;;;;;;;;;;5094884;28;20048;-61
2021/09/03 01:24:49;;;;;;;72.88;29.27;;;;;;;;;;5094343;28;20052;-62
2021/09/03 01:27:34;;;;;;;89.90;34.33;;;;;;;;;;5095003;28;20508;-61
2021/09/03 01:30:19;;;;;;;92.82;36.25;;;;;;;;;;5094848;28;20146;-62
2021/09/03 01:33:05;;;;;;;82.65;32.72;;;;;;;;;;5094392;28;20044;-62
2021/09/03 01:35:50;;;;;;;83.97;32.70;;;;;;;;;;5094345;28;20090;-62
2021/09/03 01:38:37;;;;;;;103.63;36.88;;;;;;;;;;5094551;28;20051;-62
2021/09/03 01:41:22;;;;;;;112.45;39.33;;;;;;;;;;5094332;28;20044;-61
2021/09/03 01:44:10;;;;;;;100.00;36.22;;;;;;;;;;5093847;28;20044;-61
2021/09/03 01:46:55;;;;;;;106.03;37.53;;;;;;;;;;5094511;28;20055;-62
2021/09/03 01:49:40;;;;;;;108.15;41.40;;;;;;;;;;5094217;28;20052;-62
2021/09/03 01:52:26;;;;;;;92.25;36.80;;;;;;;;;;5094105;28;20114;-62
2021/09/03 01:55:11;;;;;;;105.65;38.67;;;;;;;;;;5093580;28;20448;-61
2021/09/03 01:57:58;;;;;;;88.63;32.65;;;;;;;;;;5093931;28;20517;-61
2021/09/03 02:00:43;;;;;;;98.40;32.92;;;;;;;;;;5094051;28;20225;-61
2021/09/03 02:03:29;;;;;;;76.07;29.50;;;;;;;;;;5093352;28;20052;-62
2021/09/03 02:06:14;;;;;;;58.33;22.60;;;;;;;;;;5094044;28;20477;-62
2021/09/03 02:08:59;;;;;;;58.45;22.65;;;;;;;;;;5093718;28;20048;-62
2021/09/03 02:11:44;;;;;;;54.35;20.90;;;;;;;;;;5093110;28;20048;-61
2021/09/03 02:14:30;;;;;;;46.47;18.75;;;;;;;;;;5093494;28;20059;-61
2021/09/03 02:17:15;;;;;;;34.08;15.95;;;;;;;;;;5093706;28;20126;-61
2021/09/03 02:20:01;;;;;;;43.17;17.88;;;;;;;;;;5093493;28;20052;-62
2021/09/03 02:22:46;;;;;;;51.45;20.05;;;;;;;;;;5093719;28;20051;-61
2021/09/03 02:25:31;;;;;;;66.90;27.77;;;;;;;;;;5093337;28;20056;-61
2021/09/03 02:28:18;;;;;;;42.08;18.95;;;;;;;;;;5093332;28;20055;-61
2021/09/03 02:31:03;;;;;;;49.85;19.88;;;;;;;;;;5093581;28;20060;-61
2021/09/03 02:33:49;;;;;;;46.72;20.35;;;;;;;;;;5092078;28;20048;-62
2021/09/03 02:36:34;;;;;;;42.42;19.98;;;;;;;;;;5092661;28;20425;-62
2021/09/03 02:39:20;;;;;;;48.78;20.17;;;;;;;;;;5093394;28;20413;-62
2021/09/03 02:42:06;;;;;;;44.78;19.42;;;;;;;;;;5093277;28;20052;-61
2021/09/03 02:44:51;;;;;;;336.55;23.88;;;;;;;;;;5092708;28;20044;-61
2021/09/03 02:47:37;;;;;;;33.95;13.77;;;;;;;;;;5093142;28;20056;-61
2021/09/03 02:50:22;;;;;;;38.28;18.58;;;;;;;;;;5093108;28;20123;-61
2021/09/03 02:53:07;;;;;;;41.00;18.33;;;;;;;;;;5092721;28;20517;-61
2021/09/03 02:55:53;;;;;;;48.10;19.83;;;;;;;;;;5093583;28;20052;-61
2021/09/03 02:58:38;;;;;;;50.22;19.85;;;;;;;;;;5092972;28;20052;-61
2021/09/03 03:01:23;;;;;;;47.15;19.17;;;;;;;;;;5093037;28;20119;-61
2021/09/03 03:04:09;;;;;;;43.58;17.55;;;;;;;;;;5092568;28;20048;-61
2021/09/03 03:06:54;;;;;;;39.33;17.17;;;;;;;;;;5092832;28;20063;-61
2021/09/03 03:09:39;;;;;;;48.17;20.58;;;;;;;;;;5092596;28;20490;-61
2021/09/03 03:12:25;;;;;;;49.45;20.77;;;;;;;;;;5092827;28;20048;-62
2021/09/03 03:15:10;;;;;;;37.03;18.17;;;;;;;;;;5092260;28;20506;-62
2021/09/03 03:17:55;;;;;;;100.55;30.25;;;;;;;;;;5092515;28;20056;-61
2021/09/03 03:20:41;;;;;;;46.60;20.08;;;;;;;;;;5092529;28;20119;-62
2021/09/03 03:23:26;;;;;;;50.30;19.67;;;;;;;;;;5092265;28;20051;-62
2021/09/03 03:26:12;;;;;;;50.88;21.33;;;;;;;;;;5092438;28;20469;-62
2021/09/03 03:28:57;;;;;;;51.05;21.58;;;;;;;;;;5092325;28;20115;-62
2021/09/03 03:31:43;;;;;;;43.20;19.23;;;;;;;;;;5092435;28;20052;-61
2021/09/03 03:34:28;;;;;;;42.20;18.48;;;;;;;;;;5092272;28;20052;-61
2021/09/03 03:37:14;;;;;;;38.58;17.77;;;;;;;;;;5092158;28;20486;-61
2021/09/03 03:39:59;;;;;;;32.97;16.73;;;;;;;;;;5092368;28;20048;-61
2021/09/03 03:42:45;;;;;;;33.92;16.05;;;;;;;;;;5092236;28;20135;-62
2021/09/03 03:45:30;;;;;;;36.97;16.58;;;;;;;;;;5091773;28;20051;-61
2021/09/03 03:48:15;;;;;;;50.30;21.25;;;;;;;;;;5092265;28;20089;-61
2021/09/03 03:51:01;;;;;;;49.75;21.27;;;;;;;;;;5092167;28;20043;-61
2021/09/03 03:53:46;;;;;;;53.92;22.67;;;;;;;;;;5091529;28;20056;-62
2021/09/03 03:56:31;;;;;;;63.35;24.90;;;;;;;;;;5092230;28;20066;-61
2021/09/03 03:59:17;;;;;;;61.90;25.02;;;;;;;;;;5092232;28;20048;-62
2021/09/03 04:02:02;;;;;;;39.30;20.52;;;;;;;;;;5091914;28;20294;-61
2021/09/03 04:04:47;;;;;;;46.78;21.02;;;;;;;;;;5091748;28;20052;-62
2021/09/03 04:07:33;;;;;;;38.22;18.88;;;;;;;;;;5092025;28;20418;-62
2021/09/03 04:10:18;;;;;;;42.42;18.75;;;;;;;;;;5091850;28;20052;-62
2021/09/03 04:13:04;;;;;;;33.65;17.38;;;;;;;;;;5092002;28;20048;-62
2021/09/03 04:15:49;;;;;;;29.63;15.48;;;;;;;;;;5091710;28;20052;-62
2021/09/03 04:18:34;;;;;;;29.33;14.98;;;;;;;;;;5091861;28;20493;-62
2021/09/03 04:21:20;;;;;;;27.77;13.88;;;;;;;;;;5091970;28;20505;-61
2021/09/03 04:24:05;;;;;;;30.50;15.07;;;;;;;;;;5091473;28;20048;-62
2021/09/03 04:26:50;;;;;;;59.03;18.85;;;;;;;;;;5076685;28;20119;-62
2021/09/03 04:29:35;;;;;;;94.95;22.92;;;;;;;;;;5091682;28;20507;-61
2021/09/03 04:32:20;;;;;;;127.40;29.45;;;;;;;;;;5091838;28;20387;-62
2021/09/03 04:35:06;;;;;;;78.85;24.33;;;;;;;;;;5095117;28;20056;-62
2021/09/03 04:37:52;;;;;;;50.20;18.73;;;;;;;;;;5095787;28;20173;-62
2021/09/03 04:40:37;;;;;;;62.38;22.52;;;;;;;;;;5095663;28;20052;-62
2021/09/03 04:43:22;;;;;;;73.60;21.75;;;;;;;;;;5095436;28;20060;-62
2021/09/03 04:46:07;;;;;;;84.38;23.02;;;;;;;;;;5095556;28;20066;-62
2021/09/03 04:48:53;;;;;;;40.90;17.25;;;;;;;;;;5095542;28;20055;-62
2021/09/03 04:51:38;;;;;;;41.55;17.08;;;;;;;;;;5095318;28;20052;-62
2021/09/03 04:54:23;;;;;;;69.95;24.20;;;;;;;;;;5094701;28;20052;-62
2021/09/03 04:57:08;;;;;;;45.70;17.58;;;;;;;;;;5095291;28;20048;-61
2021/09/03 04:59:54;;;;;;;52.55;21.48;;;;;;;;;;5095182;28;20055;-62
2021/09/03 05:02:39;;;;;;;77.80;24.55;;;;;;;;;;5094998;28;20509;-61
2021/09/03 05:05:24;;;;;;;82.15;28.63;;;;;;;;;;5094689;28;20522;-62
2021/09/03 05:08:10;;;;;;;78.70;26.65;;;;;;;;;;5095066;28;20452;-62
2021/09/03 05:10:55;;;;;;;57.67;24.45;;;;;;;;;;5094811;28;20052;-62
2021/09/03 05:13:40;;;;;;;57.67;22.73;;;;;;;;;;5094699;28;20060;-62
2021/09/03 05:16:25;;;;;;;51.10;22.65;;;;;;;;;;5095306;28;20123;-62
2021/09/03 05:19:11;;;;;;;48.88;20.80;;;;;;;;;;5094647;28;20048;-61
2021/09/03 05:21:56;;;;;;;42.58;18.55;;;;;;;;;;5094156;28;20494;-62
2021/09/03 05:24:42;;;;;;;48.58;19.92;;;;;;;;;;5084276;28;20049;-62
2021/09/03 05:27:27;;;;;;;51.30;20.25;;;;;;;;;;5074313;28;20052;-62
2021/09/03 05:30:14;;;;;;;31.73;15.38;;;;;;;;;;5077002;28;20044;-62
2021/09/03 05:32:59;;;;;;;33.95;15.50;;;;;;;;;;5074157;28;20083;-61
2021/09/03 05:35:44;;;;;;;27.02;14.00;;;;;;;;;;5074012;28;20048;-61
2021/09/03 05:38:29;;;;;;;35.63;15.70;;;;;;;;;;5074405;28;20052;-62
2021/09/03 05:41:15;;;;;;;34.28;16.05;;;;;;;;;;5074257;28;20115;-62
2021/09/03 05:44:00;;;;;;;33.92;17.05;;;;;;;;;;5073433;28;20502;-61
2021/09/03 05:46:45;;;;;;;49.25;21.38;;;;;;;;;;5073995;28;20052;-62
2021/09/03 05:49:31;;;;;;;52.88;23.65;;;;;;;;;;5074128;28;20052;-62
2021/09/03 05:52:16;;;;;;;38.10;18.55;;;;;;;;;;5073912;28;20561;-62
2021/09/03 05:55:01;;;;;;;35.97;17.63;;;;;;;;;;5073085;28;20145;-61
2021/09/03 05:57:48;;;;;;;39.17;19.48;;;;;;;;;;5073618;28;20421;-62
2021/09/03 06:00:33;;;;;;;40.97;19.25;;;;;;;;;;5073823;28;20127;-62
2021/09/03 06:03:18;;;;;;;36.20;16.65;;;;;;;;;;5073878;28;20131;-61
2021/09/03 06:06:04;;;;;;;133.30;25.05;;;;;;;;;;5073759;28;20048;-62
2021/09/03 06:08:52;;;;;;;57.60;18.95;;;;;;;;;;5073634;28;20052;-63
2021/09/03 06:11:37;;;;;;;38.58;17.63;;;;;;;;;;5073744;28;20048;-63
2021/09/03 06:14:22;;;;;;;53.67;22.25;;;;;;;;;;5073315;28;20056;-62
2021/09/03 06:17:07;;;;;;;45.58;19.58;;;;;;;;;;5073922;28;20071;-62
2021/09/03 06:19:53;;;;;;;60.67;24.95;;;;;;;;;;5073613;28;20052;-62
2021/09/03 06:22:38;;;;;;;60.47;27.23;;;;;;;;;;5073331;28;20498;-62
2021/09/03 06:25:24;;;;;;;59.25;27.05;;;;;;;;;;5073071;28;20052;-62
2021/09/03 06:28:09;;;;;;;58.35;26.08;;;;;;;;;;5073376;28;20052;-62
2021/09/03 06:30:54;;;;;;;58.85;25.98;;;;;;;;;;5073548;28;20056;-62
2021/09/03 06:33:40;;;;;;;65.88;29.85;;;;;;;;;;5071893;28;20044;-61
2021/09/03 06:36:25;;;;;;;71.70;32.83;;;;;;;;;;5072981;28;20119;-62
2021/09/03 06:39:10;;;;;;;69.80;30.98;;;;;;;;;;5073072;28;20053;-62
2021/09/03 06:41:55;;;;;;;74.90;34.00;;;;;;;;;;5072860;28;20123;-61
2021/09/03 06:44:41;;;;;;;70.70;32.72;;;;;;;;;;5071893;28;20045;-62
2021/09/03 06:47:26;;;;;;;71.63;32.67;;;;;;;;;;5088970;28;20051;-62
2021/09/03 06:50:12;;;;;;;67.60;33.50;;;;;;;;;;5092983;28;20052;-61
2021/09/03 06:52:57;;;;;;;68.90;30.92;;;;;;;;;;5092861;28;20048;-62
2021/09/03 06:55:42;;;;;;;57.00;28.90;;;;;;;;;;5092282;28;20052;-62
2021/09/03 06:58:28;;;;;;;62.97;28.00;;;;;;;;;;5083103;28;20109;-62
2021/09/03 07:01:13;;;;;;;48.35;26.50;;;;;;;;;;5081972;28;20049;-62
2021/09/03 07:03:58;;;;;;;43.88;25.15;;;;;;;;;;5083229;28;20048;-63
2021/09/03 07:06:44;;;;;;;41.55;24.08;;;;;;;;;;5093895;28;20126;-63
2021/09/03 07:09:29;;;;;;;39.63;22.48;;;;;;;;;;5094263;28;20085;-62
2021/09/03 07:12:14;;;;;;;45.83;23.92;;;;;;;;;;5093867;28;20071;-61
2021/09/03 07:14:59;;;;;;;43.17;23.65;;;;;;;;;;5093616;28;20051;-61
2021/09/03 07:17:45;;;;;;;36.03;20.25;;;;;;;;;;5092616;28;20114;-63
2021/09/03 07:20:30;;;;;;;38.67;22.17;;;;;;;;;;5092952;28;20122;-63
2021/09/03 07:23:15;;;;;;;33.53;19.88;;;;;;;;;;5093427;28;20127;-63
2021/09/03 07:26:01;;;;;;;29.02;16.60;;;;;;;;;;5094570;28;20044;-62
2021/09/03 07:28:46;;;;;;;31.08;17.85;;;;;;;;;;5094164;28;20044;-63
2021/09/03 07:31:32;;;;;;;27.40;16.55;;;;;;;;;;5093117;28;20052;-64
2021/09/03 07:34:18;;;;;;;26.70;15.93;;;;;;;;;;5092409;28;20056;-63
2021/09/03 07:37:03;;;;;;;25.63;14.65;;;;;;;;;;5093010;28;20056;-63
2021/09/03 07:39:48;;;;;;;23.50;13.27;;;;;;;;;;5092757;28;20044;-64
2021/09/03 07:42:34;;;;;;;23.33;11.77;;;;;;;;;;5092709;28;20052;-63
2021/09/03 07:45:19;;;;;;;19.38;11.40;;;;;;;;;;5092570;28;20048;-63
2021/09/03 07:48:04;;;;;;;19.23;11.35;;;;;;;;;;5092995;28;20123;-63
2021/09/03 07:50:50;;;;;;;21.23;10.60;;;;;;;;;;5092735;28;20044;-63
2021/09/03 07:53:35;;;;;;;25.80;13.77;;;;;;;;;;5092197;28;20688;-63
2021/09/03 07:56:20;;;;;;;21.80;12.48;;;;;;;;;;5093258;28;20052;-63
2021/09/03 07:59:05;;;;;;;22.88;11.60;;;;;;;;;;5092348;28;20418;-63
2021/09/03 08:01:51;;;;;;;18.95;10.90;;;;;;;;;;5092813;28;20044;-63
2021/09/03 08:04:36;;;;;;;24.85;12.30;;;;;;;;;;5091800;28;20056;-62
2021/09/03 08:07:25;;;;;;;18.15;9.65;;;;;;;;;;5092009;28;20522;-62
2021/09/03 08:10:11;;;;;;;15.23;8.60;;;;;;;;;;5096100;28;20052;-63
2021/09/03 08:12:56;;;;;;;17.27;9.35;;;;;;;;;;5096305;28;20044;-63
2021/09/03 08:15:42;;;;;;;17.65;9.68;;;;;;;;;;5095765;28;20502;-63
2021/09/03 08:18:27;;;;;;;18.77;10.40;;;;;;;;;;5095973;28;20055;-63
2021/09/03 08:21:12;;;;;;;17.08;8.63;;;;;;;;;;5095997;28;20498;-62
2021/09/03 08:23:58;;;;;;;19.17;8.50;;;;;;;;;;5095676;28;20044;-63
2021/09/03 08:26:43;;;;;;;14.73;8.27;;;;;;;;;;5095594;28;20432;-63
2021/09/03 08:29:28;;;;;;;14.63;8.52;;;;;;;;;;5095949;28;20052;-63
2021/09/03 08:32:14;;;;;;;17.55;9.02;;;;;;;;;;5095779;28;20048;-62
2021/09/03 08:34:59;;;;;;;17.08;7.88;;;;;;;;;;5095785;28;20497;-63
2021/09/03 08:37:45;;;;;;;18.20;8.90;;;;;;;;;;5095845;28;20127;-63
2021/09/03 08:40:30;;;;;;;15.82;7.90;;;;;;;;;;5095665;28;20048;-63
2021/09/03 08:43:19;;;;;;;15.00;8.73;;;;;;;;;;5095397;28;20506;-63
2021/09/03 08:46:04;;;;;;;12.73;7.32;;;;;;;;;;5095625;28;20048;-63
2021/09/03 08:48:49;;;;;;;16.63;7.90;;;;;;;;;;5094517;28;20044;-63
2021/09/03 08:51:34;;;;;;;12.55;7.68;;;;;;;;;;5094310;28;20498;-63
2021/09/03 08:54:20;;;;;;;16.00;8.02;;;;;;;;;;5105488;22;20127;-66
2021/09/03 08:57:05;;;;;;;15.82;7.55;;;;;;;;;;5075090;28;20052;-65
2021/09/03 08:59:51;;;;;;;14.20;7.28;;;;;;;;;;5074931;28;20052;-65
2021/09/03 09:02:36;;;;;;;16.25;7.40;;;;;;;;;;5075025;28;20057;-65
2021/09/03 09:05:22;;;;;;;13.82;7.40;;;;;;;;;;5074508;28;20049;-65
2021/09/03 09:08:07;;;;;;;11.82;7.10;;;;;;;;;;5074863;28;20052;-65
2021/09/03 09:10:52;;;;;;;19.27;8.32;;;;;;;;;;5074964;28;20098;-65
2021/09/03 09:13:38;;;;;;;18.83;8.98;;;;;;;;;;5074515;28;20052;-64
2021/09/03 09:16:26;;;;;;;12.30;7.20;;;;;;;;;;5075093;28;20052;-65
2021/09/03 09:19:11;;;;;;;16.30;8.18;;;;;;;;;;5074192;28;20074;-65
2021/09/03 09:22:05;;;;;;;15.30;6.63;;;;;;;;;;5074693;28;20060;-65
2021/09/03 09:24:50;;;;;;;12.07;6.70;;;;;;;;;;5074019;28;20086;-65
2021/09/03 09:27:35;;;;;;;15.80;7.07;;;;;;;;;;5074676;28;20044;-65
2021/09/03 09:30:21;;;;;;;16.55;7.10;;;;;;;;;;5073546;28;20053;-65
2021/09/03 09:33:10;;;;;;;15.63;7.25;;;;;;;;;;5074373;28;20115;-65
2021/09/03 09:35:56;;;;;;;11.68;6.25;;;;;;;;;;5074593;28;20052;-65
2021/09/03 09:38:41;;;;;;;17.77;7.93;;;;;;;;;;5074264;28;20099;-65
2021/09/03 09:41:27;;;;;;;17.75;7.68;;;;;;;;;;5074247;28;20457;-65
2021/09/03 09:44:12;;;;;;;14.20;7.05;;;;;;;;;;5072995;28;20053;-64
2021/09/03 09:47:07;;;;;;;14.40;7.22;;;;;;;;;;5074118;28;20080;-65
2021/09/03 09:49:54;;;;;;;15.98;6.68;;;;;;;;;;5074030;28;20510;-65
2021/09/03 09:52:42;;;;;;;16.70;7.60;;;;;;;;;;5074085;28;20045;-66
2021/09/03 09:55:28;;;;;;;15.20;7.28;;;;;;;;;;5073617;28;20056;-64
2021/09/03 09:58:14;;;;;;;17.63;7.50;;;;;;;;;;5072874;28;20124;-64
2021/09/03 10:00:59;;;;;;;21.98;7.68;;;;;;;;;;5074104;28;20056;-64
2021/09/03 10:03:44;;;;;;;20.10;8.57;;;;;;;;;;5073494;28;20056;-65
2021/09/03 10:06:30;;;;;;;13.45;7.03;;;;;;;;;;5073451;28;20119;-64
2021/09/03 10:09:16;;;;;;;18.08;7.28;;;;;;;;;;5073725;28;20052;-64
2021/09/03 10:12:02;;;;;;;16.70;6.80;;;;;;;;;;5073736;28;20052;-64
2021/09/03 10:14:47;;;;;;;15.88;7.65;;;;;;;;;;5073302;28;20048;-64
2021/09/03 10:17:33;;;;;;;12.18;7.35;;;;;;;;;;5073691;28;20053;-64
2021/09/03 10:20:18;;;;;;;15.15;7.00;;;;;;;;;;5072424;28;20538;-65
2021/09/03 10:23:03;;;;;;;14.13;7.65;;;;;;;;;;5073324;28;20123;-65
2021/09/03 10:25:54;;;;;;;15.65;7.15;;;;;;;;;;5073253;28;20450;-64
2021/09/03 10:28:39;;;;;;;14.98;6.97;;;;;;;;;;5072384;28;20088;-64
2021/09/03 10:31:24;;;;;;;16.10;7.05;;;;;;;;;;5072407;28;20116;-64
2021/09/03 10:34:09;;;;;;;17.13;7.78;;;;;;;;;;5073034;28;20044;-65
2021/09/03 10:36:58;;;;;;;14.35;7.47;;;;;;;;;;5072154;28;20052;-65
2021/09/03 10:39:44;;;;;;;14.75;7.32;;;;;;;;;;5073073;28;20052;-64
2021/09/03 10:42:45;;;;;;;15.13;7.90;;;;;;;;;;5072931;28;20502;-64
2021/09/03 10:45:34;;;;;;;19.17;8.98;;;;;;;;;;5072545;28;20518;-65
2021/09/03 10:48:26;;;;;;;15.07;8.20;;;;;;;;;;5072729;28;20049;-64
2021/09/03 10:51:11;;;;;;;19.27;9.55;;;;;;;;;;5072939;28;20044;-65
2021/09/03 10:53:56;;;;;;;16.65;8.05;;;;;;;;;;5072411;28;20052;-64
2021/09/03 10:56:47;;;;;;;15.75;8.60;;;;;;;;;;5072587;28;20510;-64
2021/09/03 10:59:36;;;;;;;19.63;9.65;;;;;;;;;;5072673;28;20052;-65
2021/09/03 11:02:27;;;;;;;18.80;9.15;;;;;;;;;;5071747;28;20053;-65
2021/09/03 11:05:13;;;;;;;15.60;8.07;;;;;;;;;;5072092;28;20084;-65
2021/09/03 11:07:58;;;;;;;14.88;8.50;;;;;;;;;;5072611;28;20052;-65
2021/09/03 11:10:43;;;;;;;16.85;9.73;;;;;;;;;;5071518;28;20052;-65
2021/09/03 11:13:30;;;;;;;16.25;9.55;;;;;;;;;;5072138;28;20127;-65
2021/09/03 11:16:30;;;;;;;17.98;8.73;;;;;;;;;;5071358;28;20513;-65
2021/09/03 11:19:22;;;;;;;18.83;9.38;;;;;;;;;;5072313;28;20049;-65
2021/09/03 11:22:11;;;;;;;19.77;10.05;;;;;;;;;;5072243;28;20514;-65
2021/09/03 11:25:00;;;;;;;20.13;10.48;;;;;;;;;;5072027;28;20096;-65
2021/09/03 11:27:46;;;;;;;12.90;8.68;;;;;;;;;;5072129;28;20498;-65
2021/09/03 11:30:31;;;;;;;15.05;8.52;;;;;;;;;;5072397;28;20115;-65
2021/09/03 11:33:17;;;;;;;16.45;9.52;;;;;;;;;;5072243;28;20060;-64
2021/09/03 11:36:03;;;;;;;16.77;9.13;;;;;;;;;;5070980;28;20053;-65
2021/09/03 11:38:57;;;;;;;15.75;9.35;;;;;;;;;;5072316;28;20045;-65
2021/09/03 11:41:49;;;;;;;15.43;9.82;;;;;;;;;;5071865;28;20526;-65
2021/09/03 11:44:34;;;;;;;16.40;9.35;;;;;;;;;;5071602;28;20056;-65
2021/09/03 11:47:23;;;;;;;13.43;9.18;;;;;;;;;;5072106;28;20056;-65
2021/09/03 11:50:12;;;;;;;17.58;9.10;;;;;;;;;;5072022;28;20048;-65
2021/09/03 11:52:57;;;;;;;16.80;9.40;;;;;;;;;;5071886;28;20052;-65
2021/09/03 11:55:43;;;;;;;22.05;9.80;;;;;;;;;;5071420;28;20477;-65
2021/09/03 11:58:29;;;;;;;18.40;11.35;;;;;;;;;;5071835;28;20569;-64
2021/09/03 12:01:14;;;;;;;15.98;9.23;;;;;;;;;;5071772;28;20052;-65
2021/09/03 12:03:59;;;;;;;15.45;9.70;;;;;;;;;;5071679;28;20053;-65
2021/09/03 12:06:44;;;;;;;17.85;10.75;;;;;;;;;;5071802;28;20048;-65
2021/09/03 12:09:36;;;;;;;14.85;9.95;;;;;;;;;;5071633;28;20495;-65
2021/09/03 12:12:28;;;;;;;15.55;10.10;;;;;;;;;;5071858;28;20417;-64
2021/09/03 12:15:19;;;;;;;15.02;9.93;;;;;;;;;;5071460;28;20053;-65
2021/09/03 12:18:08;;;;;;;14.05;8.57;;;;;;;;;;5070661;28;20052;-65
2021/09/03 12:20:55;;;;;;;18.60;9.98;;;;;;;;;;5070723;28;20076;-65
2021/09/03 12:23:44;;;;;;;15.75;8.98;;;;;;;;;;5071464;28;20052;-64
2021/09/03 12:26:39;;;;;;;16.88;9.20;;;;;;;;;;5071767;28;20053;-64
2021/09/03 12:29:25;;;;;;;16.27;9.85;;;;;;;;;;5071689;28;20052;-65
2021/09/03 12:32:11;;;;;;;17.42;9.60;;;;;;;;;;5071610;28;20127;-65
2021/09/03 12:34:59;;;;;;;13.30;7.80;;;;;;;;;;5071422;28;20049;-65
2021/09/03 12:37:57;;;;;;;14.68;9.43;;;;;;;;;;5071788;28;20490;-65
2021/09/03 12:40:42;;;;;;;14.45;9.52;;;;;;;;;;5071490;28;20044;-64
2021/09/03 12:43:31;;;;;;;13.15;6.88;;;;;;;;;;5071636;28;20048;-64
2021/09/03 12:46:16;;;;;;;10.95;8.23;;;;;;;;;;5071457;28;20049;-64
2021/09/03 12:49:03;;;;;;;12.35;8.70;;;;;;;;;;5071314;28;20136;-65
2021/09/03 12:51:50;;;;;;;14.77;9.27;;;;;;;;;;5071591;28;20406;-65
2021/09/03 12:54:37;;;;;;;13.10;7.53;;;;;;;;;;5072372;28;20767;-65
2021/09/03 12:57:22;;;;;;;14.02;7.95;;;;;;;;;;5074971;28;20056;-65
2021/09/03 13:00:08;;;;;;;11.18;7.32;;;;;;;;;;5075171;28;20119;-65
2021/09/03 13:02:53;;;;;;;13.45;8.27;;;;;;;;;;5075049;28;20103;-65
2021/09/03 13:05:38;;;;;;;13.30;7.97;;;;;;;;;;5073476;28;20452;-65
2021/09/03 13:08:24;;;;;;;16.33;8.38;;;;;;;;;;5074998;28;20060;-65
2021/09/03 13:11:09;;;;;;;11.93;8.13;;;;;;;;;;5074877;28;20049;-65
2021/09/03 13:13:55;;;;;;;14.95;7.70;;;;;;;;;;5074409;28;20045;-65
2021/09/03 13:16:40;;;;;;;12.55;7.07;;;;;;;;;;5074824;28;20057;-65
2021/09/03 13:19:26;;;;;;;9.82;7.57;;;;;;;;;;5074684;28;20052;-65
2021/09/03 13:22:11;;;;;;;12.35;7.53;;;;;;;;;;5074640;28;20048;-66
2021/09/03 13:24:56;;;;;;;13.02;7.50;;;;;;;;;;5074398;28;20068;-65
2021/09/03 13:27:42;;;;;;;10.60;6.72;;;;;;;;;;5074332;28;20498;-65
2021/09/03 13:30:27;;;;;;;14.48;8.27;;;;;;;;;;5074500;28;20052;-65
2021/09/03 13:33:12;;;;;;;9.57;7.55;;;;;;;;;;5074543;28;20049;-66
2021/09/03 13:35:58;;;;;;;12.93;7.97;;;;;;;;;;5074391;28;20418;-65
2021/09/03 13:38:43;;;;;;;12.38;7.05;;;;;;;;;;5074338;28;20052;-65
2021/09/03 13:41:31;;;;;;;13.30;7.95;;;;;;;;;;5074278;28;20057;-65
2021/09/03 13:44:16;;;;;;;14.95;9.05;;;;;;;;;;5074015;28;20123;-65
2021/09/03 13:47:02;;;;;;;15.07;8.10;;;;;;;;;;5074071;28;20048;-65
2021/09/03 13:49:46;;;;;;;12.85;8.98;;;;;;;;;;5072999;28;20044;-65
2021/09/03 13:52:32;;;;;;;12.90;7.97;;;;;;;;;;5074160;28;20052;-65
2021/09/03 13:55:17;;;;;;;11.23;9.00;;;;;;;;;;5073545;28;20048;-65
2021/09/03 13:58:03;;;;;;;13.65;9.35;;;;;;;;;;5073790;28;20049;-65
2021/09/03 14:00:48;;;;;;;12.77;9.82;;;;;;;;;;5074008;28;20048;-66
2021/09/03 14:03:33;;;;;;;12.50;9.00;;;;;;;;;;5073559;28;20128;-65
2021/09/03 14:06:19;;;;;;;13.98;9.73;;;;;;;;;;5073492;28;20090;-65
2021/09/03 14:09:06;;;;;;;14.48;9.32;;;;;;;;;;5073720;28;20048;-65
2021/09/03 14:11:52;;;;;;;14.88;10.30;;;;;;;;;;5073707;28;20045;-65
2021/09/03 14:14:37;;;;;;;12.05;9.48;;;;;;;;;;5073165;28;20048;-66
2021/09/03 14:17:22;;;;;;;16.65;10.20;;;;;;;;;;5073602;28;20052;-65
2021/09/03 14:20:08;;;;;;;17.33;10.52;;;;;;;;;;5073458;28;20053;-65
2021/09/03 14:22:53;;;;;;;19.27;12.00;;;;;;;;;;5073278;28;20056;-65
2021/09/03 14:25:39;;;;;;;12.98;9.50;;;;;;;;;;5073178;28;20052;-65
2021/09/03 14:28:24;;;;;;;16.58;9.93;;;;;;;;;;5073347;28;20057;-65
2021/09/03 14:31:11;;;;;;;12.00;9.15;;;;;;;;;;5073222;28;20048;-65
2021/09/03 14:33:56;;;;;;;13.10;9.88;;;;;;;;;;5073100;28;20053;-65
2021/09/03 14:36:42;;;;;;;14.02;10.02;;;;;;;;;;5073247;28;20131;-65
2021/09/03 14:39:27;;;;;;;14.00;10.05;;;;;;;;;;5073528;28;20469;-65
2021/09/03 14:42:12;;;;;;;14.18;9.63;;;;;;;;;;5072875;28;20482;-65
2021/09/03 14:44:58;;;;;;;13.23;9.52;;;;;;;;;;5072770;28;20135;-66
2021/09/03 14:47:43;;;;;;;13.98;9.27;;;;;;;;;;5072822;28;20052;-65
2021/09/03 14:50:29;;;;;;;13.07;10.10;;;;;;;;;;5073040;28;20053;-65
2021/09/03 14:53:14;;;;;;;14.07;9.82;;;;;;;;;;5072756;28;20399;-65
2021/09/03 14:56:00;;;;;;;14.98;10.70;;;;;;;;;;5130013;22;20052;-63
2021/09/03 14:58:45;;;;;;;15.80;9.63;;;;;;;;;;5093179;28;20056;-62
2021/09/03 15:01:30;;;;;;;13.15;8.75;;;;;;;;;;5092884;28;20060;-63
2021/09/03 15:04:17;;;;;;;16.67;9.93;;;;;;;;;;5092499;28;20055;-63
2021/09/03 15:07:04;;;;;;;14.15;9.75;;;;;;;;;;5092930;28;20154;-62
2021/09/03 15:09:50;;;;;;;16.98;9.18;;;;;;;;;;5077579;28;20048;-62
2021/09/03 15:12:35;;;;;;;14.57;10.30;;;;;;;;;;5092764;28;20410;-63
2021/09/03 15:15:20;;;;;;;12.95;9.73;;;;;;;;;;5092292;28;20442;-62
2021/09/03 15:18:06;;;;;;;14.98;9.52;;;;;;;;;;5092375;28;20055;-63
2021/09/03 15:20:51;;;;;;;14.30;10.18;;;;;;;;;;5092569;28;20052;-63
2021/09/03 15:23:36;;;;;;;14.70;9.30;;;;;;;;;;5092310;28;20425;-63
2021/09/03 15:26:21;;;;;;;12.15;8.70;;;;;;;;;;5092313;28;20497;-63
2021/09/03 15:29:08;;;;;;;14.23;9.30;;;;;;;;;;5092466;28;20433;-62
2021/09/03 15:31:53;;;;;;;13.07;8.85;;;;;;;;;;5092518;28;20115;-62
2021/09/03 15:34:38;;;;;;;16.05;8.98;;;;;;;;;;5092154;28;20472;-62
2021/09/03 15:37:24;;;;;;;15.90;10.00;;;;;;;;;;5092319;28;20079;-62
2021/09/03 15:40:09;;;;;;;13.30;9.45;;;;;;;;;;5092308;28;20056;-62
2021/09/03 15:42:55;;;;;;;14.18;9.15;;;;;;;;;;5092470;28;20047;-63
2021/09/03 15:45:40;;;;;;;14.23;8.77;;;;;;;;;;5091962;28;20052;-63
2021/09/03 15:48:25;;;;;;;16.17;9.80;;;;;;;;;;5092161;28;20106;-63
2021/09/03 15:51:11;;;;;;;14.98;9.55;;;;;;;;;;5092452;28;20048;-62
2021/09/03 15:53:56;;;;;;;14.65;9.30;;;;;;;;;;5091829;28;20047;-62
2021/09/03 15:56:41;;;;;;;14.10;8.88;;;;;;;;;;5092097;28;20048;-62
2021/09/03 15:59:26;;;;;;;14.27;10.32;;;;;;;;;;5092248;28;20048;-63
2021/09/03 16:02:12;;;;;;;15.23;9.63;;;;;;;;;;5092097;28;20084;-63
2021/09/03 16:04:57;;;;;;;13.95;11.38;;;;;;;;;;5091877;28;20048;-63
2021/09/03 16:07:42;;;;;;;14.73;9.32;;;;;;;;;;5092277;28;20048;-63
2021/09/03 16:10:28;;;;;;;15.20;10.32;;;;;;;;;;5092129;28;20490;-62
2021/09/03 16:13:13;;;;;;;14.55;10.68;;;;;;;;;;5091933;28;20052;-62